Time;durP1;ratioP1;P1;durP2;ratioP2;P2;SDS_P1;SDS_P2;PMS_P1;PMS_P2;Temp;Humidity;BMP_temperature;BMP_pressure;BME280_temperature;BME280_humidity;BME280_pressure;Samples;Min_cycle;Max_cycle;Signal;HPM_P1;HPM_P2
2023/01/06 00:01:10;;;;;;;4.93;4.65;;;3.10;99.90;;;;;;6093170;23;20405;-81
2023/01/06 00:03:37;;;;;;;3.88;3.67;;;3.10;99.90;;;;;;6092069;23;20503;-80
2023/01/06 00:06:05;;;;;;;3.47;3.30;;;3.10;99.90;;;;;;6117713;23;20750;-80
2023/01/06 00:08:34;;;;;;;3.88;3.67;;;3.10;99.90;;;;;;6092314;23;20781;-81
2023/01/06 00:11:09;;;;;;;3.83;3.63;;;3.10;99.90;;;;;;6092727;23;20419;-80
2023/01/06 00:13:36;;;;;;;4.03;3.83;;;3.00;99.90;;;;;;6092089;23;20902;-80
2023/01/06 00:16:12;;;;;;;4.05;3.85;;;2.90;99.90;;;;;;6092666;23;20722;-80
2023/01/06 00:18:40;;;;;;;3.63;3.42;;;2.90;99.90;;;;;;6091981;23;20450;-80
2023/01/06 00:21:07;;;;;;;4.18;3.97;;;2.80;99.90;;;;;;6094395;23;20904;-81
2023/01/06 00:23:35;;;;;;;4.20;4.00;;;2.80;99.90;;;;;;6092215;23;20424;-80
2023/01/06 00:26:04;;;;;;;3.60;3.40;;;2.80;99.90;;;;;;6094083;23;20447;-81
2023/01/06 00:28:31;;;;;;;3.70;3.50;;;2.70;99.90;;;;;;6091936;23;20869;-80
2023/01/06 00:31:09;;;;;;;3.60;3.42;;;2.60;99.90;;;;;;6092718;23;20812;-80
2023/01/06 00:33:36;;;;;;;3.55;3.35;;;2.60;99.90;;;;;;6093185;23;20441;-79
2023/01/06 00:36:04;;;;;;;3.78;3.47;;;2.40;99.90;;;;;;6092858;23;20683;-80
2023/01/06 00:38:31;;;;;;;2.88;2.78;;;2.40;99.90;;;;;;6091797;23;20428;-80
2023/01/06 00:42:02;;;;;;;3.45;3.28;;;2.40;99.90;;;;;;6092807;23;20452;-80
2023/01/06 00:43:52;;;;;;;2.90;2.80;;;2.30;99.90;;;;;;6093010;23;20400;-80
2023/01/06 00:46:19;;;;;;;2.83;2.72;;;2.30;99.90;;;;;;6092630;23;20433;-80
2023/01/06 00:48:46;;;;;;;3.10;3.00;;;2.30;99.90;;;;;;6091594;23;20420;-80
2023/01/06 00:51:31;;;;;;;2.85;2.75;;;2.30;99.90;;;;;;6092757;23;20436;-79
2023/01/06 00:53:58;;;;;;;2.80;2.70;;;2.30;99.90;;;;;;6092249;23;20412;-80
2023/01/06 00:56:25;;;;;;;4.33;4.10;;;2.30;99.90;;;;;;6092599;23;20404;-79
2023/01/06 00:58:52;;;;;;;3.70;3.50;;;2.60;99.90;;;;;;6091889;23;20444;-80
2023/01/06 01:01:19;;;;;;;3.53;3.35;;;2.90;99.90;;;;;;6092408;23;20385;-80
2023/01/06 01:03:46;;;;;;;3.60;3.40;;;2.90;99.90;;;;;;6091887;23;20452;-80
2023/01/06 01:06:14;;;;;;;3.67;3.47;;;2.80;99.90;;;;;;6092510;23;20853;-79
2023/01/06 01:08:42;;;;;;;3.08;2.97;;;2.70;99.90;;;;;;6093698;23;20423;-79
2023/01/06 01:12:08;;;;;;;2.80;2.70;;;2.70;99.90;;;;;;6093864;23;20373;-79
2023/01/06 01:14:01;;;;;;;2.80;2.60;;;2.60;99.90;;;;;;6093376;23;20883;-81
2023/01/06 01:16:28;;;;;;;2.75;2.65;;;2.60;99.90;;;;;;6092864;23;20377;-80
2023/01/06 01:18:55;;;;;;;3.00;2.90;;;2.50;99.90;;;;;;6091414;23;20405;-80
2023/01/06 01:21:22;;;;;;;2.75;2.63;;;2.50;99.90;;;;;;6092710;23;20393;-80
2023/01/06 01:23:49;;;;;;;2.90;2.80;;;2.40;99.90;;;;;;6115794;23;20424;-80
2023/01/06 01:26:16;;;;;;;3.30;3.10;;;2.40;99.90;;;;;;6093044;23;20385;-80
2023/01/06 01:28:43;;;;;;;2.90;2.80;;;2.20;99.90;;;;;;6091589;23;20388;-80
2023/01/06 01:31:11;;;;;;;2.80;2.70;;;2.20;99.90;;;;;;6092666;23;20456;-79
2023/01/06 01:33:38;;;;;;;3.00;2.90;;;2.20;99.90;;;;;;6091470;23;20381;-80
2023/01/06 01:36:11;;;;;;;3.08;2.97;;;2.10;99.90;;;;;;6092576;23;20436;-80
2023/01/06 01:38:37;;;;;;;3.15;2.95;;;2.10;99.90;;;;;;6091490;23;20475;-79
2023/01/06 01:41:05;;;;;;;3.00;2.88;;;2.00;99.90;;;;;;6091231;23;20380;-80
2023/01/06 01:43:45;;;;;;;3.13;3.00;;;1.90;99.90;;;;;;6092517;23;20444;-80
2023/01/06 01:46:34;;;;;;;3.00;2.90;;;1.80;99.90;;;;;;6092929;23;20617;-79
2023/01/06 01:49:09;;;;;;;3.65;3.45;;;1.80;99.90;;;;;;6091335;23;20829;-79
2023/01/06 01:51:41;;;;;;;3.03;2.92;;;1.70;99.90;;;;;;6092289;23;20472;-81
2023/01/06 01:54:13;;;;;;;3.15;3.05;;;1.70;99.90;;;;;;6091526;23;20440;-80
2023/01/06 01:56:44;;;;;;;2.83;2.72;;;1.60;99.90;;;;;;6092347;23;20381;-80
2023/01/06 01:59:18;;;;;;;2.70;2.60;;;1.60;99.90;;;;;;6091101;23;20458;-80
2023/01/06 06:36:31;;;;;;;4.15;3.22;;;2.70;99.90;;;;;;6057141;23;20435;-79
2023/01/06 06:38:59;;;;;;;2.63;2.43;;;2.80;99.90;;;;;;6089743;23;20416;-78
2023/01/06 06:41:26;;;;;;;7.60;3.40;;;2.80;99.90;;;;;;6067931;23;20781;-79
2023/01/06 06:43:53;;;;;;;5.33;3.07;;;2.80;99.90;;;;;;6066714;23;20862;-78
2023/01/06 06:46:20;;;;;;;8.55;3.47;;;2.80;99.90;;;;;;6068048;23;20377;-78
2023/01/06 06:48:48;;;;;;;3.20;3.00;;;2.80;99.90;;;;;;6068610;23;20750;-78
2023/01/06 06:51:18;;;;;;;2.60;2.50;;;2.80;99.90;;;;;;6069790;23;20424;-78
2023/01/06 06:53:46;;;;;;;2.40;2.30;;;2.90;99.90;;;;;;6093527;23;20427;-79
2023/01/06 06:56:14;;;;;;;2.80;2.70;;;2.90;99.90;;;;;;6069619;23;20381;-79
2023/01/06 06:58:41;;;;;;;3.33;2.90;;;3.00;99.90;;;;;;6068567;23;20726;-78
2023/01/06 07:01:10;;;;;;;2.80;2.60;;;3.10;99.90;;;;;;6069844;23;20377;-79
2023/01/06 07:03:38;;;;;;;2.90;2.60;;;3.10;99.90;;;;;;6064256;23;20765;-78
2023/01/06 07:06:08;;;;;;;2.92;2.55;;;3.20;99.90;;;;;;6065285;23;20398;-78
2023/01/06 07:08:35;;;;;;;2.70;2.50;;;3.20;99.90;;;;;;6040713;23;20551;-79
2023/01/06 07:11:04;;;;;;;3.17;2.90;;;3.30;99.90;;;;;;6039301;23;20447;-79
2023/01/06 07:13:31;;;;;;;3.30;3.10;;;3.30;99.90;;;;;;6064642;23;20704;-78
2023/01/06 07:15:58;;;;;;;4.68;3.50;;;3.30;99.90;;;;;;6039792;23;20408;-78
2023/01/06 07:18:25;;;;;;;3.60;3.33;;;3.40;99.90;;;;;;6040732;23;20760;-79
2023/01/06 07:20:52;;;;;;;4.80;3.25;;;3.40;99.90;;;;;;6039211;23;20688;-78
2023/01/06 07:23:21;;;;;;;4.43;3.83;;;3.40;99.90;;;;;;6040776;23;20386;-78
2023/01/06 07:25:56;;;;;;;3.10;2.90;;;3.40;99.90;;;;;;6039435;23;20448;-78
2023/01/06 07:28:24;;;;;;;3.60;3.30;;;3.50;99.90;;;;;;6039710;23;20387;-78
2023/01/06 07:30:51;;;;;;;3.30;3.10;;;3.50;99.90;;;;;;6039089;23;20383;-78
2023/01/06 07:33:19;;;;;;;2.90;2.70;;;3.50;99.90;;;;;;6064643;23;20386;-78
2023/01/06 07:35:46;;;;;;;2.92;2.72;;;3.50;99.90;;;;;;6051620;23;20380;-78
2023/01/06 07:38:13;;;;;;;2.90;2.80;;;3.50;99.90;;;;;;6063906;23;20411;-78
2023/01/06 07:40:40;;;;;;;6.72;3.55;;;3.50;99.90;;;;;;6063492;23;20448;-78
2023/01/06 07:43:09;;;;;;;3.53;3.22;;;3.50;99.90;;;;;;6051213;23;20395;-78
2023/01/06 07:45:36;;;;;;;3.97;3.60;;;3.50;99.90;;;;;;6040506;23;20379;-79
2023/01/06 07:48:04;;;;;;;3.03;2.83;;;3.60;99.90;;;;;;6039975;23;20391;-79
2023/01/06 07:50:31;;;;;;;3.05;2.75;;;3.60;99.90;;;;;;6040153;23;20407;-79
2023/01/06 07:53:00;;;;;;;2.55;2.30;;;3.60;99.90;;;;;;6042776;23;20378;-78
2023/01/06 07:55:28;;;;;;;2.77;2.60;;;3.60;99.90;;;;;;6048955;23;20450;-79
2023/01/06 07:57:57;;;;;;;2.33;2.22;;;3.60;99.90;;;;;;6065678;23;20393;-78
2023/01/06 08:00:24;;;;;;;2.70;2.50;;;3.60;99.90;;;;;;6056128;23;20490;-79
2023/01/06 08:02:51;;;;;;;2.40;2.10;;;3.60;99.90;;;;;;6078886;23;20381;-79
2023/01/06 08:05:18;;;;;;;3.08;2.75;;;3.70;99.90;;;;;;6087850;23;20476;-79
2023/01/06 08:07:45;;;;;;;3.03;2.83;;;3.60;99.90;;;;;;6063660;23;20379;-79
2023/01/06 08:10:12;;;;;;;3.00;2.80;;;3.60;99.90;;;;;;6077929;23;20872;-79
2023/01/06 08:12:39;;;;;;;2.97;2.78;;;3.70;99.90;;;;;;6054551;23;20708;-79
2023/01/06 08:15:06;;;;;;;2.58;2.38;;;3.70;99.90;;;;;;6051461;23;20384;-79
2023/01/06 08:17:33;;;;;;;2.35;2.25;;;3.70;99.90;;;;;;6062985;23;20450;-79
2023/01/06 08:20:00;;;;;;;2.60;2.40;;;3.70;99.90;;;;;;6064692;23;20454;-79
2023/01/06 08:22:27;;;;;;;2.80;2.60;;;3.70;99.90;;;;;;6056753;23;20412;-79
2023/01/06 08:24:54;;;;;;;3.30;3.00;;;3.80;99.90;;;;;;6054788;23;20416;-79
2023/01/06 08:27:21;;;;;;;3.35;3.13;;;3.80;99.90;;;;;;6063688;23;20440;-79
2023/01/06 08:29:48;;;;;;;3.50;3.30;;;3.80;99.90;;;;;;6077237;23;20432;-78
2023/01/06 08:32:16;;;;;;;5.82;5.38;;;3.80;99.90;;;;;;6055463;23;20381;-79
2023/01/06 08:34:43;;;;;;;5.70;5.30;;;3.80;99.90;;;;;;6063668;23;20414;-79
2023/01/06 08:37:10;;;;;;;4.78;4.38;;;3.90;99.90;;;;;;6068473;23;20745;-78
2023/01/06 08:39:37;;;;;;;4.18;3.97;;;3.90;99.90;;;;;;6067448;23;20759;-79
2023/01/06 08:42:04;;;;;;;3.55;3.35;;;3.90;99.90;;;;;;6067268;23;20373;-78
2023/01/06 08:44:31;;;;;;;5.95;5.47;;;3.90;99.90;;;;;;6093510;23;20385;-79
2023/01/06 08:46:58;;;;;;;5.80;5.30;;;3.90;99.90;;;;;;6067529;23;20694;-79
2023/01/06 08:49:25;;;;;;;5.72;5.32;;;3.90;99.90;;;;;;6068786;23;20440;-78
2023/01/06 08:51:52;;;;;;;5.32;4.82;;;4.00;99.90;;;;;;6067752;23;20421;-78
2023/01/06 08:54:19;;;;;;;4.88;4.47;;;3.90;99.90;;;;;;6061135;23;20429;-78
2023/01/06 08:56:46;;;;;;;4.50;4.10;;;3.90;99.90;;;;;;6068298;23;20389;-78
2023/01/06 08:59:15;;;;;;;7.30;6.70;;;4.00;99.90;;;;;;6067152;23;20393;-78
2023/01/06 09:01:42;;;;;;;20.33;18.42;;;4.00;99.90;;;;;;6067643;23;20401;-78
2023/01/06 09:04:11;;;;;;;28.83;26.07;;;4.10;99.90;;;;;;6043956;23;20487;-78
2023/01/06 09:06:40;;;;;;;22.88;20.85;;;4.20;99.90;;;;;;6068214;23;20373;-78
2023/01/06 09:09:10;;;;;;;14.93;13.57;;;4.20;99.90;;;;;;6067262;23;20471;-78
2023/01/06 09:11:41;;;;;;;12.27;11.18;;;4.30;99.90;;;;;;6067571;23;20420;-78
2023/01/06 09:14:09;;;;;;;9.52;8.63;;;4.30;99.90;;;;;;6067435;23;20452;-78
2023/01/06 09:16:36;;;;;;;10.00;9.20;;;4.40;99.90;;;;;;6068079;23;20373;-78
2023/01/06 09:19:03;;;;;;;11.80;10.80;;;4.40;99.90;;;;;;6067595;23;20784;-78
2023/01/06 09:21:30;;;;;;;12.48;11.57;;;4.40;99.90;;;;;;6092799;23;20385;-77
2023/01/06 09:23:57;;;;;;;11.13;10.43;;;4.40;99.90;;;;;;6067242;23;20377;-78
2023/01/06 09:26:24;;;;;;;7.63;7.13;;;4.50;99.90;;;;;;6067779;23;20376;-78
2023/01/06 09:28:51;;;;;;;7.18;6.65;;;4.50;99.90;;;;;;6057308;23;20379;-78
2023/01/06 09:31:18;;;;;;;5.90;5.53;;;4.60;99.90;;;;;;6038548;23;20458;-78
2023/01/06 09:33:45;;;;;;;5.35;5.05;;;4.60;99.90;;;;;;6039069;23;20419;-78
2023/01/06 09:36:12;;;;;;;5.05;4.68;;;4.60;99.90;;;;;;6086046;23;20760;-77
2023/01/06 09:38:39;;;;;;;4.25;3.95;;;4.60;99.90;;;;;;6056199;23;20488;-77
2023/01/06 09:41:26;;;;;;;3.50;3.38;;;4.60;99.90;;;;;;6052879;23;20369;-78
2023/01/06 09:44:24;;;;;;;3.78;3.58;;;4.70;99.90;;;;;;6061265;23;20470;-78
2023/01/06 09:46:52;;;;;;;3.60;3.40;;;4.60;99.90;;;;;;6090481;23;20742;-78
2023/01/06 09:49:42;;;;;;;3.70;3.50;;;4.70;99.90;;;;;;6043039;23;20378;-78
2023/01/06 09:52:21;;;;;;;3.50;3.40;;;4.80;99.90;;;;;;6089873;23;20373;-77
2023/01/06 09:54:55;;;;;;;3.53;3.40;;;4.80;99.90;;;;;;6063564;23;20887;-77
2023/01/06 09:57:35;;;;;;;3.93;3.73;;;4.90;99.90;;;;;;6067463;23;20397;-78
2023/01/06 10:00:27;;;;;;;3.65;3.45;;;4.90;99.90;;;;;;6091689;23;20388;-77
2023/01/06 10:02:56;;;;;;;3.90;3.70;;;5.00;99.90;;;;;;6091978;23;20445;-78
2023/01/06 10:05:45;;;;;;;4.05;3.85;;;5.00;99.90;;;;;;6067880;23;20378;-78
2023/01/06 10:08:24;;;;;;;3.80;3.60;;;5.10;99.90;;;;;;6066481;23;20385;-79
2023/01/06 10:11:07;;;;;;;5.85;5.55;;;5.10;99.90;;;;;;6066159;23;20393;-77
2023/01/06 10:13:46;;;;;;;5.22;4.93;;;5.20;99.90;;;;;;6092809;23;20380;-77
2023/01/06 10:16:39;;;;;;;5.68;5.28;;;5.30;99.90;;;;;;6066945;23;20429;-77
2023/01/06 10:19:23;;;;;;;4.68;4.38;;;5.40;99.90;;;;;;6066713;23;20385;-78
2023/01/06 10:22:02;;;;;;;4.07;3.88;;;5.40;99.90;;;;;;6067408;23;20381;-81
2023/01/06 10:24:53;;;;;;;3.00;2.90;;;5.40;99.90;;;;;;6069968;23;20924;-78
2023/01/06 10:27:28;;;;;;;3.00;2.90;;;5.60;99.90;;;;;;6063797;23;20371;-78
2023/01/06 10:29:59;;;;;;;3.47;3.17;;;5.70;99.90;;;;;;6066559;23;20401;-78
2023/01/06 10:32:32;;;;;;;4.72;3.58;;;5.80;99.90;;;;;;6092397;23;20880;-79
2023/01/06 10:35:00;;;;;;;3.53;3.33;;;5.90;99.90;;;;;;6083259;23;20469;-78
2023/01/06 10:37:35;;;;;;;3.67;3.50;;;5.90;99.90;;;;;;6052346;23;20391;-77
2023/01/06 10:40:18;;;;;;;4.47;4.18;;;6.00;99.90;;;;;;6052404;23;20425;-80
2023/01/06 10:42:56;;;;;;;3.10;3.00;;;6.10;99.90;;;;;;6057545;23;20405;-80
2023/01/06 10:45:32;;;;;;;2.70;2.60;;;6.20;99.90;;;;;;6068536;23;20393;-78
2023/01/06 10:48:02;;;;;;;2.83;2.72;;;6.30;99.90;;;;;;6069536;23;20387;-77
2023/01/06 10:50:29;;;;;;;2.70;2.60;;;6.30;99.90;;;;;;6092150;23;20399;-78
2023/01/06 10:52:56;;;;;;;2.92;2.83;;;6.30;99.90;;;;;;6093159;23;21254;-77
2023/01/06 10:55:34;;;;;;;2.90;2.80;;;6.40;99.90;;;;;;6067705;23;20775;-77
2023/01/06 10:58:23;;;;;;;2.90;2.80;;;6.40;99.90;;;;;;6069555;23;20439;-77
2023/01/06 11:01:10;;;;;;;3.70;3.50;;;6.40;99.90;;;;;;6067171;23;20384;-79
2023/01/06 11:03:41;;;;;;;3.42;3.22;;;6.50;99.90;;;;;;6067715;23;20420;-78
2023/01/06 11:06:33;;;;;;;2.90;2.80;;;6.50;99.90;;;;;;6066441;23;20409;-77
2023/01/06 11:09:06;;;;;;;2.83;2.72;;;6.50;99.90;;;;;;6037927;23;20831;-78
2023/01/06 11:11:46;;;;;;;2.67;2.57;;;6.60;99.90;;;;;;6039895;23;20780;-77
2023/01/06 11:14:17;;;;;;;2.85;2.75;;;6.60;99.90;;;;;;6061735;23;20434;-78
2023/01/06 11:16:54;;;;;;;3.20;3.10;;;6.70;99.90;;;;;;6082542;23;20417;-77
2023/01/06 11:19:31;;;;;;;3.22;3.00;;;6.70;99.90;;;;;;6075152;23;20367;-77
2023/01/06 11:21:58;;;;;;;2.78;2.67;;;6.80;99.90;;;;;;6063227;23;20383;-77
2023/01/06 11:24:26;;;;;;;2.60;2.50;;;6.80;99.90;;;;;;6057607;23;20389;-78
2023/01/06 11:26:58;;;;;;;2.80;2.70;;;6.90;99.90;;;;;;6092259;23;20417;-78
2023/01/06 11:29:35;;;;;;;2.60;2.50;;;7.00;99.90;;;;;;6055832;23;20397;-78
2023/01/06 11:32:11;;;;;;;2.70;2.60;;;7.00;99.90;;;;;;6067589;23;20385;-77
2023/01/06 11:34:51;;;;;;;2.60;2.50;;;7.10;99.90;;;;;;6068546;23;21018;-78
2023/01/06 11:37:39;;;;;;;2.70;2.60;;;7.10;99.90;;;;;;6067508;23;20390;-78
2023/01/06 11:40:28;;;;;;;2.80;2.60;;;7.10;99.90;;;;;;6065493;23;20405;-77
2023/01/06 11:42:59;;;;;;;2.50;2.40;;;7.10;99.90;;;;;;6068518;23;20381;-79
2023/01/06 11:45:35;;;;;;;3.05;2.95;;;7.20;99.90;;;;;;6090677;23;20413;-78
2023/01/06 11:48:11;;;;;;;3.38;3.25;;;7.20;99.90;;;;;;6092520;23;20390;-78
2023/01/06 11:50:38;;;;;;;4.20;4.00;;;7.20;99.90;;;;;;6067881;23;20392;-78
2023/01/06 11:53:16;;;;;;;4.35;4.15;;;7.20;99.90;;;;;;6068011;23;20405;-77
2023/01/06 11:55:58;;;;;;;3.80;3.60;;;7.30;99.90;;;;;;6069187;23;20416;-78
2023/01/06 11:58:44;;;;;;;3.92;3.72;;;7.30;99.90;;;;;;6068300;23;20374;-78
2023/01/06 12:01:31;;;;;;;4.03;3.83;;;7.40;99.90;;;;;;6068687;23;20437;-79
2023/01/06 12:04:37;;;;;;;4.45;4.25;;;7.40;99.90;;;;;;6068737;23;20420;-79
2023/01/06 12:07:22;;;;;;;5.10;4.80;;;7.40;99.90;;;;;;6050472;23;20729;-79
2023/01/06 12:09:52;;;;;;;5.00;4.70;;;7.50;99.90;;;;;;6038568;23;20748;-79
2023/01/06 12:12:22;;;;;;;5.25;4.85;;;7.50;99.90;;;;;;6083312;23;20491;-79
2023/01/06 12:14:49;;;;;;;4.85;4.55;;;7.50;99.90;;;;;;6053355;23;20453;-81
2023/01/06 12:17:39;;;;;;;5.03;4.72;;;7.50;99.90;;;;;;6062709;23;20407;-80
2023/01/06 12:20:29;;;;;;;4.47;4.20;;;7.50;99.90;;;;;;6038820;23;20447;-79
2023/01/06 12:23:11;;;;;;;4.95;4.65;;;7.50;99.90;;;;;;6049925;23;20405;-79
2023/01/06 12:25:45;;;;;;;4.27;4.07;;;7.50;99.90;;;;;;6075597;23;20395;-79
2023/01/06 12:28:20;;;;;;;3.67;3.50;;;7.50;99.90;;;;;;6078946;23;20381;-79
2023/01/06 12:31:08;;;;;;;3.80;3.60;;;7.60;99.90;;;;;;6054920;23;20440;-78
2023/01/06 12:33:54;;;;;;;3.85;3.65;;;7.60;99.90;;;;;;6062944;23;20386;-80
2023/01/06 12:36:33;;;;;;;3.80;3.60;;;7.60;99.90;;;;;;6055185;23;20423;-79
2023/01/06 12:39:25;;;;;;;3.33;3.13;;;7.50;99.90;;;;;;6061707;23;20851;-78
2023/01/06 12:41:57;;;;;;;2.83;2.72;;;7.50;99.90;;;;;;6049418;23;20520;-79
2023/01/06 12:45:09;;;;;;;3.30;3.20;;;7.50;99.90;;;;;;6062463;23;20466;-80
2023/01/06 12:47:38;;;;;;;2.92;2.78;;;7.50;99.90;;;;;;6024712;23;20403;-79
2023/01/06 12:50:05;;;;;;;2.88;2.78;;;7.40;99.90;;;;;;6063335;23;20883;-79
2023/01/06 12:52:40;;;;;;;3.00;2.90;;;7.40;99.90;;;;;;6063154;23;20371;-79
2023/01/06 12:55:15;;;;;;;2.60;2.50;;;7.40;99.90;;;;;;6063857;23;20407;-79
2023/01/06 12:58:11;;;;;;;2.90;2.80;;;7.50;99.90;;;;;;6064584;23;20394;-79
2023/01/06 13:01:06;;;;;;;2.70;2.60;;;7.50;99.90;;;;;;6062892;23;21339;-78
2023/01/06 13:03:52;;;;;;;3.00;2.90;;;7.60;99.90;;;;;;6078729;23;20383;-80
2023/01/06 13:06:31;;;;;;;2.95;2.85;;;7.60;99.90;;;;;;6062956;23;20405;-79
2023/01/06 13:09:19;;;;;;;3.45;3.25;;;7.60;99.90;;;;;;6063165;23;20442;-79
2023/01/06 13:12:04;;;;;;;3.15;3.05;;;7.60;99.90;;;;;;6065174;23;20373;-78
2023/01/06 13:14:49;;;;;;;3.30;3.10;;;7.60;99.90;;;;;;6067037;23;20746;-79
2023/01/06 13:17:16;;;;;;;3.30;3.20;;;7.70;99.90;;;;;;6088049;23;20448;-79
2023/01/06 13:19:55;;;;;;;3.35;3.25;;;7.70;99.90;;;;;;6066254;23;20428;-81
2023/01/06 13:22:51;;;;;;;3.20;3.10;;;7.70;99.90;;;;;;6068578;23;20381;-79
2023/01/06 13:25:43;;;;;;;3.05;2.95;;;7.70;99.90;;;;;;6093043;23;20745;-80
2023/01/06 13:28:18;;;;;;;3.10;3.00;;;7.80;99.90;;;;;;6068074;23;20381;-78
2023/01/06 13:31:06;;;;;;;3.05;2.95;;;7.80;99.90;;;;;;6069085;23;20378;-79
2023/01/06 13:33:47;;;;;;;3.50;3.40;;;7.90;99.90;;;;;;6067532;23;20374;-79
2023/01/06 13:36:33;;;;;;;3.30;3.20;;;7.90;99.90;;;;;;6066615;23;20397;-79
2023/01/06 13:39:19;;;;;;;3.53;3.33;;;7.90;99.90;;;;;;6040046;23;20442;-79
2023/01/06 13:41:51;;;;;;;3.27;3.17;;;7.90;99.90;;;;;;6062300;23;20434;-80
2023/01/06 13:44:25;;;;;;;3.40;3.30;;;7.90;99.90;;;;;;6040249;23;20452;-79
2023/01/06 13:46:58;;;;;;;3.90;3.70;;;7.90;99.90;;;;;;6090968;23;20369;-79
2023/01/06 13:49:29;;;;;;;3.40;3.20;;;7.90;99.90;;;;;;6092448;23;20868;-78
2023/01/06 13:51:57;;;;;;;3.78;3.58;;;7.90;99.90;;;;;;6093223;23;20413;-79
2023/01/06 13:54:39;;;;;;;3.53;3.33;;;7.90;99.90;;;;;;6067770;23;20437;-79
2023/01/06 13:57:21;;;;;;;3.58;3.38;;;7.80;99.90;;;;;;6056706;23;21217;-79
2023/01/06 13:59:49;;;;;;;3.72;3.53;;;7.80;99.90;;;;;;6069010;23;20430;-79
2023/01/06 14:02:41;;;;;;;3.10;3.00;;;7.70;99.90;;;;;;6095366;23;20373;-79
2023/01/06 14:05:20;;;;;;;3.42;3.22;;;7.70;99.90;;;;;;6036393;23;20395;-79
2023/01/06 14:08:14;;;;;;;3.37;3.17;;;7.80;99.90;;;;;;6040696;23;20388;-79
2023/01/06 14:10:47;;;;;;;2.70;2.60;;;7.80;99.90;;;;;;6041846;23;20410;-79
2023/01/06 14:13:24;;;;;;;2.80;2.70;;;7.90;99.90;;;;;;6057738;23;20457;-80
2023/01/06 14:16:12;;;;;;;2.72;2.63;;;7.90;99.90;;;;;;6094392;23;20373;-79
2023/01/06 14:18:41;;;;;;;3.15;2.95;;;8.00;99.90;;;;;;6070017;23;20440;-79
2023/01/06 14:21:29;;;;;;;3.10;3.00;;;8.00;99.90;;;;;;6069562;23;20388;-79
2023/01/06 14:24:17;;;;;;;2.85;2.75;;;8.00;99.90;;;;;;6069504;23;20408;-80
2023/01/06 14:26:53;;;;;;;3.55;3.35;;;8.00;99.90;;;;;;6069858;23;20377;-81
2023/01/06 14:29:43;;;;;;;3.67;3.47;;;8.00;99.90;;;;;;6064806;23;20370;-79
2023/01/06 14:32:33;;;;;;;3.50;3.30;;;8.00;99.90;;;;;;6036159;23;20406;-80
2023/01/06 14:35:10;;;;;;;3.80;3.60;;;8.00;99.90;;;;;;6040019;23;20390;-79
2023/01/06 14:37:51;;;;;;;3.70;3.50;;;8.00;99.90;;;;;;6041518;23;20736;-79
2023/01/06 14:40:27;;;;;;;3.58;3.38;;;8.00;99.90;;;;;;6040105;23;20378;-78
2023/01/06 14:42:57;;;;;;;3.80;3.60;;;8.00;99.90;;;;;;6041297;23;20402;-79
2023/01/06 14:45:28;;;;;;;3.58;3.38;;;7.90;99.90;;;;;;6028947;23;20851;-79
2023/01/06 14:48:08;;;;;;;4.23;4.03;;;7.90;99.90;;;;;;6065153;23;20410;-79
2023/01/06 14:50:40;;;;;;;4.25;4.05;;;7.80;99.90;;;;;;6087721;23;20386;-79
2023/01/06 14:53:21;;;;;;;5.33;5.00;;;7.80;99.90;;;;;;6064635;23;20796;-78
2023/01/06 14:55:49;;;;;;;4.95;4.68;;;7.80;99.90;;;;;;6050574;23;20384;-79
2023/01/06 14:58:38;;;;;;;3.90;3.70;;;7.80;99.90;;;;;;6087413;23;20437;-80
2023/01/06 15:01:05;;;;;;;4.03;3.83;;;7.70;99.90;;;;;;6064599;23;20422;-79
2023/01/06 15:03:33;;;;;;;3.60;3.40;;;7.80;99.90;;;;;;6080990;23;20773;-79
2023/01/06 15:06:19;;;;;;;4.10;3.90;;;7.70;99.90;;;;;;6047741;23;20383;-79
2023/01/06 15:08:46;;;;;;;4.25;3.95;;;7.80;99.90;;;;;;6051729;23;20696;-79
2023/01/06 15:11:30;;;;;;;3.22;3.13;;;7.80;99.90;;;;;;6063795;23;20447;-79
2023/01/06 15:13:57;;;;;;;3.08;2.97;;;7.80;99.90;;;;;;6087525;23;20435;-79
2023/01/06 15:16:39;;;;;;;3.60;3.40;;;7.90;99.90;;;;;;6077986;23;20435;-78
2023/01/06 15:19:10;;;;;;;3.60;3.50;;;7.90;99.90;;;;;;6081949;23;20369;-79
2023/01/06 15:21:39;;;;;;;3.93;3.73;;;7.80;99.90;;;;;;6046087;23;20406;-79
2023/01/06 15:24:22;;;;;;;3.60;3.40;;;7.80;99.90;;;;;;6063306;23;20436;-79
2023/01/06 15:26:51;;;;;;;5.47;5.17;;;7.80;99.90;;;;;;6039564;23;20418;-79
2023/01/06 15:29:21;;;;;;;9.23;8.60;;;7.80;99.90;;;;;;6034508;23;20906;-79
2023/01/06 15:31:50;;;;;;;9.40;8.70;;;7.70;99.90;;;;;;6039063;23;20783;-79
2023/01/06 15:34:26;;;;;;;7.90;7.40;;;7.70;99.90;;;;;;6040421;23;20452;-79
2023/01/06 15:36:54;;;;;;;5.13;4.82;;;7.70;99.90;;;;;;6038447;23;20382;-78
2023/01/06 15:39:27;;;;;;;5.65;5.35;;;7.70;99.90;;;;;;6039894;23;20375;-79
2023/01/06 15:41:55;;;;;;;10.45;9.65;;;7.70;99.90;;;;;;6038732;23;20387;-78
2023/01/06 15:44:31;;;;;;;5.93;5.53;;;7.60;99.90;;;;;;6039482;23;20451;-78
2023/01/06 15:47:09;;;;;;;5.40;5.10;;;7.60;99.90;;;;;;6037243;23;20380;-79
2023/01/06 15:49:52;;;;;;;5.07;4.78;;;7.60;99.90;;;;;;6040448;23;20390;-79
2023/01/06 15:52:21;;;;;;;4.10;3.90;;;7.60;99.90;;;;;;6051185;23;20375;-78
2023/01/06 15:54:50;;;;;;;4.03;3.83;;;7.60;99.90;;;;;;6056601;23;20442;-78
2023/01/06 15:57:17;;;;;;;5.15;4.85;;;7.60;99.90;;;;;;6062338;23;20373;-78
2023/01/06 15:59:58;;;;;;;4.13;3.92;;;7.70;99.90;;;;;;6044649;23;20422;-78
2023/01/06 16:02:29;;;;;;;4.20;4.00;;;7.70;99.90;;;;;;6059213;23;20382;-80
2023/01/06 16:04:58;;;;;;;4.90;4.60;;;7.70;99.90;;;;;;6059983;23;20380;-78
2023/01/06 16:07:40;;;;;;;4.53;4.33;;;7.70;99.90;;;;;;6066314;23;20520;-79
2023/01/06 16:10:29;;;;;;;5.47;5.18;;;7.60;99.90;;;;;;6076865;23;20400;-79
2023/01/06 16:13:14;;;;;;;4.55;4.35;;;7.50;99.90;;;;;;6062145;23;20434;-78
2023/01/06 16:15:53;;;;;;;7.90;7.40;;;7.50;99.90;;;;;;6054226;23;20445;-79
2023/01/06 16:18:32;;;;;;;4.63;4.43;;;7.50;99.90;;;;;;6065527;23;20452;-78
2023/01/06 16:21:12;;;;;;;5.03;4.80;;;7.50;99.90;;;;;;6061364;23;20467;-78
2023/01/06 16:23:53;;;;;;;4.57;4.37;;;7.50;99.90;;;;;;6049115;23;20750;-79
2023/01/06 16:26:24;;;;;;;4.40;4.20;;;7.40;99.90;;;;;;6060985;23;20383;-78
2023/01/06 16:28:56;;;;;;;4.22;4.03;;;7.40;99.90;;;;;;6067680;23;20429;-78
2023/01/06 16:31:37;;;;;;;3.83;3.63;;;7.40;99.90;;;;;;6079403;23;20757;-80
2023/01/06 16:34:33;;;;;;;3.97;3.78;;;7.50;99.90;;;;;;6063689;23;20375;-79
2023/01/06 16:37:00;;;;;;;4.55;4.25;;;7.50;99.90;;;;;;6044942;23;20375;-78
2023/01/06 16:39:27;;;;;;;4.30;4.10;;;7.50;99.90;;;;;;6085118;23;20434;-78
2023/01/06 16:41:59;;;;;;;4.50;4.20;;;7.50;99.90;;;;;;6066356;23;20723;-79
2023/01/06 16:44:31;;;;;;;4.47;4.27;;;7.50;99.90;;;;;;6046296;23;20456;-79
2023/01/06 16:46:58;;;;;;;6.30;5.80;;;7.50;99.90;;;;;;6086074;23;20537;-78
2023/01/06 16:49:25;;;;;;;6.90;6.40;;;7.50;99.90;;;;;;6063589;23;20391;-77
2023/01/06 16:51:53;;;;;;;6.20;5.80;;;7.40;99.90;;;;;;6065611;23;20387;-78
2023/01/06 16:54:22;;;;;;;5.35;5.05;;;7.40;99.90;;;;;;6048272;23;20379;-78
2023/01/06 16:56:50;;;;;;;4.40;4.20;;;7.40;99.90;;;;;;6075444;23;20856;-78
2023/01/06 16:59:22;;;;;;;5.07;4.75;;;7.40;99.90;;;;;;6060661;23;20509;-78
2023/01/06 17:01:49;;;;;;;3.83;3.53;;;7.30;99.90;;;;;;6085918;23;20385;-79
2023/01/06 17:04:16;;;;;;;4.60;4.40;;;7.30;99.90;;;;;;6060535;23;20389;-77
2023/01/06 17:06:45;;;;;;;6.07;5.67;;;7.30;99.90;;;;;;6086018;23;20408;-78
2023/01/06 17:09:22;;;;;;;6.32;5.93;;;7.30;99.90;;;;;;6076458;23;20378;-78
2023/01/06 17:11:51;;;;;;;5.45;5.15;;;7.30;99.90;;;;;;6064525;23;20438;-78
2023/01/06 17:14:20;;;;;;;4.25;4.05;;;7.30;99.90;;;;;;6048201;23;20379;-78
2023/01/06 17:16:49;;;;;;;3.75;3.55;;;7.30;99.90;;;;;;6086367;23;20381;-78
2023/01/06 17:19:32;;;;;;;3.83;3.63;;;7.30;99.90;;;;;;6061022;23;20379;-79
2023/01/06 17:22:34;;;;;;;3.10;3.00;;;7.30;99.90;;;;;;6075293;23;20900;-78
2023/01/06 17:25:11;;;;;;;3.53;3.37;;;7.40;99.90;;;;;;6004288;23;20452;-78
2023/01/06 17:27:44;;;;;;;3.80;3.60;;;7.40;99.90;;;;;;6054311;23;20378;-79
2023/01/06 17:30:18;;;;;;;3.20;3.00;;;7.30;99.90;;;;;;6062148;23;20371;-78
2023/01/06 17:32:46;;;;;;;3.67;3.47;;;7.40;99.90;;;;;;6076847;23;20846;-79
2023/01/06 17:35:28;;;;;;;3.72;3.53;;;7.30;99.90;;;;;;6067166;23;20722;-79
2023/01/06 17:37:59;;;;;;;3.72;3.60;;;7.30;99.90;;;;;;6041447;23;20436;-78
2023/01/06 17:40:33;;;;;;;4.30;4.10;;;7.30;99.90;;;;;;6076135;23;20438;-78
2023/01/06 17:43:02;;;;;;;3.60;3.45;;;7.30;99.90;;;;;;6064677;23;20398;-78
2023/01/06 17:45:29;;;;;;;3.63;3.42;;;7.20;99.90;;;;;;6048288;23;20423;-78
2023/01/06 17:47:57;;;;;;;3.25;3.15;;;7.20;99.90;;;;;;6086030;23;20378;-79
2023/01/06 17:50:49;;;;;;;3.10;3.00;;;7.30;99.90;;;;;;6063064;23;20388;-79
2023/01/06 17:56:09;;;;;;;3.17;3.08;;;7.30;99.90;;;;;;6078992;23;20886;-79
2023/01/06 17:58:38;;;;;;;3.80;3.60;;;7.30;99.90;;;;;;6067612;23;20381;-78
2023/01/06 18:01:15;;;;;;;4.05;3.85;;;7.30;99.90;;;;;;6064625;23;20385;-79
2023/01/06 18:03:43;;;;;;;3.47;3.37;;;7.20;99.90;;;;;;6063116;23;20485;-78
2023/01/06 18:06:29;;;;;;;3.70;3.50;;;7.30;99.90;;;;;;6065615;23;20470;-78
2023/01/06 18:09:05;;;;;;;3.58;3.38;;;7.30;99.90;;;;;;6042882;23;20379;-77